sensor_id;sensor_type;location;lat;lon;timestamp;P1;durP1;ratioP1;P2;durP2;ratioP2
22965;SDS011;11649;48.090;9.754;2024-02-23T00:02:13;0.88;;;0.57;;
22965;SDS011;11649;48.090;9.754;2024-02-23T00:04:40;1.35;;;0.50;;
22965;SDS011;11649;48.090;9.754;2024-02-23T00:07:08;0.90;;;0.40;;
22965;SDS011;11649;48.090;9.754;2024-02-23T00:09:34;0.63;;;0.40;;
22965;SDS011;11649;48.090;9.754;2024-02-23T00:12:01;1.05;;;0.50;;
22965;SDS011;11649;48.090;9.754;2024-02-23T00:14:29;0.82;;;0.50;;
22965;SDS011;11649;48.090;9.754;2024-02-23T00:17:02;0.38;;;0.38;;
22965;SDS011;11649;48.090;9.754;2024-02-23T00:19:30;3.55;;;0.60;;
22965;SDS011;11649;48.090;9.754;2024-02-23T00:21:57;0.93;;;0.38;;
22965;SDS011;11649;48.090;9.754;2024-02-23T00:24:26;0.38;;;0.22;;
22965;SDS011;11649;48.090;9.754;2024-02-23T00:26:52;0.40;;;0.30;;
22965;SDS011;11649;48.090;9.754;2024-02-23T00:29:19;0.30;;;0.28;;
22965;SDS011;11649;48.090;9.754;2024-02-23T00:31:48;0.30;;;0.30;;
22965;SDS011;11649;48.090;9.754;2024-02-23T00:34:15;0.30;;;0.30;;
22965;SDS011;11649;48.090;9.754;2024-02-23T00:36:43;0.43;;;0.40;;
22965;SDS011;11649;48.090;9.754;2024-02-23T00:39:12;0.60;;;0.40;;
22965;SDS011;11649;48.090;9.754;2024-02-23T00:41:39;0.85;;;0.30;;
22965;SDS011;11649;48.090;9.754;2024-02-23T00:44:06;1.38;;;0.30;;
22965;SDS011;11649;48.090;9.754;2024-02-23T00:46:33;0.82;;;0.40;;
22965;SDS011;11649;48.090;9.754;2024-02-23T00:49:00;0.30;;;0.30;;
22965;SDS011;11649;48.090;9.754;2024-02-23T00:51:27;0.22;;;0.22;;
22965;SDS011;11649;48.090;9.754;2024-02-23T00:53:54;0.30;;;0.25;;
22965;SDS011;11649;48.090;9.754;2024-02-23T00:56:21;1.17;;;0.30;;
22965;SDS011;11649;48.090;9.754;2024-02-23T00:58:56;1.95;;;0.40;;
22965;SDS011;11649;48.090;9.754;2024-02-23T01:01:22;0.73;;;0.40;;
22965;SDS011;11649;48.090;9.754;2024-02-23T01:03:49;0.30;;;0.30;;
22965;SDS011;11649;48.090;9.754;2024-02-23T01:06:16;0.80;;;0.30;;
22965;SDS011;11649;48.090;9.754;2024-02-23T01:08:43;1.23;;;0.40;;
22965;SDS011;11649;48.090;9.754;2024-02-23T01:11:10;1.00;;;0.30;;
22965;SDS011;11649;48.090;9.754;2024-02-23T01:13:37;0.50;;;0.30;;
22965;SDS011;11649;48.090;9.754;2024-02-23T01:16:04;0.20;;;0.20;;
22965;SDS011;11649;48.090;9.754;2024-02-23T01:18:31;0.20;;;0.20;;
22965;SDS011;11649;48.090;9.754;2024-02-23T01:20:57;0.43;;;0.20;;
22965;SDS011;11649;48.090;9.754;2024-02-23T01:23:24;0.30;;;0.30;;
22965;SDS011;11649;48.090;9.754;2024-02-23T01:25:51;0.32;;;0.30;;
22965;SDS011;11649;48.090;9.754;2024-02-23T01:28:18;0.20;;;0.20;;
22965;SDS011;11649;48.090;9.754;2024-02-23T01:30:45;0.22;;;0.22;;
22965;SDS011;11649;48.090;9.754;2024-02-23T01:33:12;0.32;;;0.30;;
22965;SDS011;11649;48.090;9.754;2024-02-23T01:35:38;0.30;;;0.30;;
22965;SDS011;11649;48.090;9.754;2024-02-23T01:38:06;0.25;;;0.25;;
22965;SDS011;11649;48.090;9.754;2024-02-23T01:40:32;0.82;;;0.25;;
22965;SDS011;11649;48.090;9.754;2024-02-23T01:43:00;0.20;;;0.20;;
22965;SDS011;11649;48.090;9.754;2024-02-23T01:45:30;1.80;;;0.40;;
22965;SDS011;11649;48.090;9.754;2024-02-23T01:47:58;0.50;;;0.30;;
22965;SDS011;11649;48.090;9.754;2024-02-23T01:50:25;0.52;;;0.30;;
22965;SDS011;11649;48.090;9.754;2024-02-23T01:52:53;0.30;;;0.30;;
22965;SDS011;11649;48.090;9.754;2024-02-23T01:55:23;0.47;;;0.22;;
22965;SDS011;11649;48.090;9.754;2024-02-23T01:57:50;0.40;;;0.40;;
22965;SDS011;11649;48.090;9.754;2024-02-23T02:00:18;0.20;;;0.20;;
22965;SDS011;11649;48.090;9.754;2024-02-23T02:02:45;0.17;;;0.15;;
22965;SDS011;11649;48.090;9.754;2024-02-23T02:05:23;0.20;;;0.20;;
22965;SDS011;11649;48.090;9.754;2024-02-23T02:07:50;0.35;;;0.35;;
22965;SDS011;11649;48.090;9.754;2024-02-23T02:10:20;0.20;;;0.20;;
22965;SDS011;11649;48.090;9.754;2024-02-23T02:12:47;0.20;;;0.20;;
22965;SDS011;11649;48.090;9.754;2024-02-23T02:15:14;0.35;;;0.35;;
22965;SDS011;11649;48.090;9.754;2024-02-23T02:17:41;0.65;;;0.25;;
22965;SDS011;11649;48.090;9.754;2024-02-23T02:20:11;0.20;;;0.20;;
22965;SDS011;11649;48.090;9.754;2024-02-23T02:22:39;0.68;;;0.25;;
22965;SDS011;11649;48.090;9.754;2024-02-23T02:25:06;0.10;;;0.10;;
22965;SDS011;11649;48.090;9.754;2024-02-23T02:27:33;0.43;;;0.30;;
22965;SDS011;11649;48.090;9.754;2024-02-23T02:30:00;0.22;;;0.20;;
22965;SDS011;11649;48.090;9.754;2024-02-23T02:32:27;0.20;;;0.20;;
22965;SDS011;11649;48.090;9.754;2024-02-23T02:34:56;0.13;;;0.13;;
22965;SDS011;11649;48.090;9.754;2024-02-23T02:37:23;1.10;;;0.20;;
22965;SDS011;11649;48.090;9.754;2024-02-23T02:39:49;0.20;;;0.20;;
22965;SDS011;11649;48.090;9.754;2024-02-23T02:42:16;0.32;;;0.15;;
22965;SDS011;11649;48.090;9.754;2024-02-23T02:44:43;0.20;;;0.20;;
22965;SDS011;11649;48.090;9.754;2024-02-23T02:47:10;0.77;;;0.20;;
22965;SDS011;11649;48.090;9.754;2024-02-23T02:49:39;0.30;;;0.30;;
22965;SDS011;11649;48.090;9.754;2024-02-23T02:52:06;0.20;;;0.20;;
22965;SDS011;11649;48.090;9.754;2024-02-23T02:54:34;0.20;;;0.20;;
22965;SDS011;11649;48.090;9.754;2024-02-23T02:57:01;0.50;;;0.25;;
22965;SDS011;11649;48.090;9.754;2024-02-23T02:59:28;0.75;;;0.22;;
22965;SDS011;11649;48.090;9.754;2024-02-23T03:01:55;0.28;;;0.28;;
22965;SDS011;11649;48.090;9.754;2024-02-23T03:04:23;1.20;;;0.35;;
22965;SDS011;11649;48.090;9.754;2024-02-23T03:06:50;1.13;;;0.25;;
22965;SDS011;11649;48.090;9.754;2024-02-23T03:09:17;0.73;;;0.22;;
22965;SDS011;11649;48.090;9.754;2024-02-23T03:11:43;0.20;;;0.20;;
22965;SDS011;11649;48.090;9.754;2024-02-23T03:14:10;0.20;;;0.20;;
22965;SDS011;11649;48.090;9.754;2024-02-23T03:16:37;0.20;;;0.20;;
22965;SDS011;11649;48.090;9.754;2024-02-23T03:19:04;0.30;;;0.30;;
22965;SDS011;11649;48.090;9.754;2024-02-23T03:21:31;1.40;;;0.40;;
22965;SDS011;11649;48.090;9.754;2024-02-23T03:23:57;0.55;;;0.30;;
22965;SDS011;11649;48.090;9.754;2024-02-23T03:26:24;0.90;;;0.25;;
22965;SDS011;11649;48.090;9.754;2024-02-23T03:28:51;1.65;;;0.40;;
22965;SDS011;11649;48.090;9.754;2024-02-23T03:31:18;1.88;;;0.22;;
22965;SDS011;11649;48.090;9.754;2024-02-23T03:33:45;0.50;;;0.25;;
22965;SDS011;11649;48.090;9.754;2024-02-23T03:36:11;2.00;;;0.30;;
22965;SDS011;11649;48.090;9.754;2024-02-23T03:38:38;0.20;;;0.20;;
22965;SDS011;11649;48.090;9.754;2024-02-23T03:41:05;0.20;;;0.20;;
22965;SDS011;11649;48.090;9.754;2024-02-23T03:43:32;0.32;;;0.30;;
22965;SDS011;11649;48.090;9.754;2024-02-23T03:46:17;0.20;;;0.20;;
22965;SDS011;11649;48.090;9.754;2024-02-23T03:48:44;0.60;;;0.30;;
22965;SDS011;11649;48.090;9.754;2024-02-23T03:51:11;0.45;;;0.20;;
22965;SDS011;11649;48.090;9.754;2024-02-23T03:53:38;0.22;;;0.22;;
22965;SDS011;11649;48.090;9.754;2024-02-23T03:56:05;0.28;;;0.28;;
22965;SDS011;11649;48.090;9.754;2024-02-23T03:58:32;0.20;;;0.20;;
22965;SDS011;11649;48.090;9.754;2024-02-23T04:00:59;1.45;;;0.28;;
22965;SDS011;11649;48.090;9.754;2024-02-23T04:03:25;0.20;;;0.20;;
22965;SDS011;11649;48.090;9.754;2024-02-23T04:05:52;0.40;;;0.40;;
22965;SDS011;11649;48.090;9.754;2024-02-23T04:08:19;0.30;;;0.30;;
22965;SDS011;11649;48.090;9.754;2024-02-23T04:10:46;0.40;;;0.40;;
22965;SDS011;11649;48.090;9.754;2024-02-23T04:13:12;0.63;;;0.30;;
22965;SDS011;11649;48.090;9.754;2024-02-23T04:15:40;0.20;;;0.20;;
22965;SDS011;11649;48.090;9.754;2024-02-23T04:18:06;0.80;;;0.30;;
22965;SDS011;11649;48.090;9.754;2024-02-23T04:20:33;0.30;;;0.30;;
22965;SDS011;11649;48.090;9.754;2024-02-23T04:23:00;1.27;;;0.50;;
22965;SDS011;11649;48.090;9.754;2024-02-23T04:25:27;0.20;;;0.20;;
22965;SDS011;11649;48.090;9.754;2024-02-23T04:27:54;0.40;;;0.38;;
22965;SDS011;11649;48.090;9.754;2024-02-23T04:30:21;1.67;;;0.30;;
22965;SDS011;11649;48.090;9.754;2024-02-23T04:32:47;0.35;;;0.28;;
22965;SDS011;11649;48.090;9.754;2024-02-23T04:35:14;0.65;;;0.30;;
22965;SDS011;11649;48.090;9.754;2024-02-23T04:37:45;0.30;;;0.30;;
22965;SDS011;11649;48.090;9.754;2024-02-23T04:40:11;1.60;;;0.40;;
22965;SDS011;11649;48.090;9.754;2024-02-23T04:42:38;0.50;;;0.32;;
22965;SDS011;11649;48.090;9.754;2024-02-23T04:45:05;0.30;;;0.30;;
22965;SDS011;11649;48.090;9.754;2024-02-23T04:47:33;0.85;;;0.30;;
22965;SDS011;11649;48.090;9.754;2024-02-23T04:50:00;1.00;;;0.50;;
22965;SDS011;11649;48.090;9.754;2024-02-23T04:52:27;0.45;;;0.45;;
22965;SDS011;11649;48.090;9.754;2024-02-23T04:54:54;0.45;;;0.45;;
22965;SDS011;11649;48.090;9.754;2024-02-23T04:57:21;0.40;;;0.40;;
22965;SDS011;11649;48.090;9.754;2024-02-23T04:59:48;0.50;;;0.30;;
22965;SDS011;11649;48.090;9.754;2024-02-23T05:02:15;0.30;;;0.30;;
22965;SDS011;11649;48.090;9.754;2024-02-23T05:04:42;3.05;;;1.02;;
22965;SDS011;11649;48.090;9.754;2024-02-23T05:07:09;0.98;;;0.65;;
22965;SDS011;11649;48.090;9.754;2024-02-23T05:09:35;0.68;;;0.50;;
22965;SDS011;11649;48.090;9.754;2024-02-23T05:12:02;1.75;;;1.05;;
22965;SDS011;11649;48.090;9.754;2024-02-23T05:14:29;0.65;;;0.50;;
22965;SDS011;11649;48.090;9.754;2024-02-23T05:16:56;1.15;;;0.50;;
22965;SDS011;11649;48.090;9.754;2024-02-23T05:19:23;1.05;;;0.50;;
22965;SDS011;11649;48.090;9.754;2024-02-23T05:21:50;1.08;;;0.70;;
22965;SDS011;11649;48.090;9.754;2024-02-23T05:24:17;0.38;;;0.30;;
22965;SDS011;11649;48.090;9.754;2024-02-23T05:26:44;1.00;;;0.47;;
22965;SDS011;11649;48.090;9.754;2024-02-23T05:29:11;0.63;;;0.50;;
22965;SDS011;11649;48.090;9.754;2024-02-23T05:31:49;1.60;;;0.68;;
22965;SDS011;11649;48.090;9.754;2024-02-23T05:34:17;1.60;;;0.98;;
22965;SDS011;11649;48.090;9.754;2024-02-23T05:36:47;1.02;;;0.70;;
22965;SDS011;11649;48.090;9.754;2024-02-23T05:39:14;0.90;;;0.55;;
22965;SDS011;11649;48.090;9.754;2024-02-23T05:41:43;0.77;;;0.57;;
22965;SDS011;11649;48.090;9.754;2024-02-23T05:44:10;1.90;;;0.77;;
22965;SDS011;11649;48.090;9.754;2024-02-23T05:46:39;1.80;;;0.93;;
22965;SDS011;11649;48.090;9.754;2024-02-23T05:49:06;1.10;;;0.75;;
22965;SDS011;11649;48.090;9.754;2024-02-23T05:51:33;1.83;;;0.70;;
22965;SDS011;11649;48.090;9.754;2024-02-23T05:54:01;1.90;;;1.10;;
22965;SDS011;11649;48.090;9.754;2024-02-23T05:56:28;1.50;;;1.00;;
22965;SDS011;11649;48.090;9.754;2024-02-23T05:58:55;3.50;;;1.23;;
22965;SDS011;11649;48.090;9.754;2024-02-23T06:01:21;0.85;;;0.55;;
22965;SDS011;11649;48.090;9.754;2024-02-23T06:03:53;1.35;;;0.70;;
22965;SDS011;11649;48.090;9.754;2024-02-23T06:06:21;0.75;;;0.50;;
22965;SDS011;11649;48.090;9.754;2024-02-23T06:08:48;0.77;;;0.50;;
22965;SDS011;11649;48.090;9.754;2024-02-23T06:11:16;0.98;;;0.57;;
22965;SDS011;11649;48.090;9.754;2024-02-23T06:13:43;1.60;;;0.50;;
22965;SDS011;11649;48.090;9.754;2024-02-23T06:16:10;4.18;;;0.65;;
22965;SDS011;11649;48.090;9.754;2024-02-23T06:18:38;1.75;;;0.60;;
22965;SDS011;11649;48.090;9.754;2024-02-23T06:21:11;1.63;;;0.80;;
22965;SDS011;11649;48.090;9.754;2024-02-23T06:23:41;2.63;;;0.90;;
22965;SDS011;11649;48.090;9.754;2024-02-23T06:26:08;1.67;;;0.80;;
22965;SDS011;11649;48.090;9.754;2024-02-23T06:28:35;2.47;;;0.80;;
22965;SDS011;11649;48.090;9.754;2024-02-23T06:31:03;0.60;;;0.60;;
22965;SDS011;11649;48.090;9.754;2024-02-23T06:33:33;1.85;;;0.47;;
22965;SDS011;11649;48.090;9.754;2024-02-23T06:36:00;3.45;;;0.80;;
22965;SDS011;11649;48.090;9.754;2024-02-23T06:38:28;2.35;;;0.90;;
22965;SDS011;11649;48.090;9.754;2024-02-23T06:40:55;1.98;;;0.70;;
22965;SDS011;11649;48.090;9.754;2024-02-23T06:43:22;3.35;;;1.25;;
22965;SDS011;11649;48.090;9.754;2024-02-23T06:45:49;4.95;;;1.40;;
22965;SDS011;11649;48.090;9.754;2024-02-23T06:48:16;1.98;;;0.98;;
22965;SDS011;11649;48.090;9.754;2024-02-23T06:50:43;4.22;;;0.95;;
22965;SDS011;11649;48.090;9.754;2024-02-23T06:53:10;1.13;;;0.80;;
22965;SDS011;11649;48.090;9.754;2024-02-23T06:55:37;1.42;;;0.57;;
22965;SDS011;11649;48.090;9.754;2024-02-23T06:58:04;1.52;;;0.70;;
22965;SDS011;11649;48.090;9.754;2024-02-23T07:00:33;1.73;;;0.70;;
22965;SDS011;11649;48.090;9.754;2024-02-23T07:03:01;2.55;;;0.80;;
22965;SDS011;11649;48.090;9.754;2024-02-23T07:05:30;2.50;;;1.13;;
22965;SDS011;11649;48.090;9.754;2024-02-23T07:07:57;2.70;;;1.05;;
22965;SDS011;11649;48.090;9.754;2024-02-23T07:10:24;4.40;;;1.55;;
22965;SDS011;11649;48.090;9.754;2024-02-23T07:12:51;4.13;;;1.08;;
22965;SDS011;11649;48.090;9.754;2024-02-23T07:15:22;4.15;;;0.90;;
22965;SDS011;11649;48.090;9.754;2024-02-23T07:17:50;2.03;;;0.80;;
22965;SDS011;11649;48.090;9.754;2024-02-23T07:20:18;1.63;;;0.70;;
22965;SDS011;11649;48.090;9.754;2024-02-23T07:22:45;1.65;;;0.80;;
22965;SDS011;11649;48.090;9.754;2024-02-23T07:25:15;3.22;;;0.70;;
22965;SDS011;11649;48.090;9.754;2024-02-23T07:27:43;1.73;;;0.80;;
22965;SDS011;11649;48.090;9.754;2024-02-23T07:30:11;1.67;;;0.68;;
22965;SDS011;11649;48.090;9.754;2024-02-23T07:32:38;1.40;;;0.73;;
22965;SDS011;11649;48.090;9.754;2024-02-23T07:35:06;2.55;;;0.82;;
22965;SDS011;11649;48.090;9.754;2024-02-23T07:37:33;1.60;;;0.65;;
22965;SDS011;11649;48.090;9.754;2024-02-23T07:40:00;1.70;;;0.70;;
22965;SDS011;11649;48.090;9.754;2024-02-23T07:42:26;2.67;;;0.93;;
22965;SDS011;11649;48.090;9.754;2024-02-23T07:44:55;1.55;;;0.77;;
22965;SDS011;11649;48.090;9.754;2024-02-23T07:47:22;4.68;;;0.85;;
22965;SDS011;11649;48.090;9.754;2024-02-23T07:49:49;2.38;;;1.48;;
22965;SDS011;11649;48.090;9.754;2024-02-23T07:52:17;3.22;;;1.40;;
22965;SDS011;11649;48.090;9.754;2024-02-23T07:54:44;2.00;;;1.10;;
22965;SDS011;11649;48.090;9.754;2024-02-23T07:57:11;2.40;;;1.10;;
22965;SDS011;11649;48.090;9.754;2024-02-23T07:59:39;1.88;;;1.00;;
22965;SDS011;11649;48.090;9.754;2024-02-23T08:02:06;1.90;;;1.10;;
22965;SDS011;11649;48.090;9.754;2024-02-23T08:04:33;2.97;;;1.15;;
22965;SDS011;11649;48.090;9.754;2024-02-23T08:07:00;3.75;;;1.50;;
22965;SDS011;11649;48.090;9.754;2024-02-23T08:09:27;4.22;;;1.73;;
22965;SDS011;11649;48.090;9.754;2024-02-23T08:11:54;3.08;;;1.52;;
22965;SDS011;11649;48.090;9.754;2024-02-23T08:14:21;1.77;;;1.00;;
22965;SDS011;11649;48.090;9.754;2024-02-23T08:16:48;3.10;;;1.40;;
22965;SDS011;11649;48.090;9.754;2024-02-23T08:19:16;1.35;;;0.90;;
22965;SDS011;11649;48.090;9.754;2024-02-23T08:21:42;2.40;;;1.02;;
22965;SDS011;11649;48.090;9.754;2024-02-23T08:26:42;3.38;;;1.10;;
22965;SDS011;11649;48.090;9.754;2024-02-23T08:29:09;2.63;;;1.40;;
22965;SDS011;11649;48.090;9.754;2024-02-23T08:31:35;5.97;;;1.42;;
22965;SDS011;11649;48.090;9.754;2024-02-23T08:34:07;2.13;;;1.15;;
22965;SDS011;11649;48.090;9.754;2024-02-23T08:36:34;2.17;;;1.20;;
22965;SDS011;11649;48.090;9.754;2024-02-23T08:39:00;6.05;;;1.10;;
22965;SDS011;11649;48.090;9.754;2024-02-23T08:41:28;3.67;;;0.98;;
22965;SDS011;11649;48.090;9.754;2024-02-23T08:43:55;5.55;;;2.25;;
22965;SDS011;11649;48.090;9.754;2024-02-23T08:46:22;5.53;;;1.90;;
22965;SDS011;11649;48.090;9.754;2024-02-23T08:48:49;3.72;;;1.50;;
22965;SDS011;11649;48.090;9.754;2024-02-23T08:51:15;7.32;;;2.67;;
22965;SDS011;11649;48.090;9.754;2024-02-23T08:53:42;4.70;;;2.75;;
22965;SDS011;11649;48.090;9.754;2024-02-23T08:56:09;3.67;;;1.50;;
22965;SDS011;11649;48.090;9.754;2024-02-23T08:58:48;4.60;;;1.95;;
22965;SDS011;11649;48.090;9.754;2024-02-23T09:01:15;4.78;;;1.20;;
22965;SDS011;11649;48.090;9.754;2024-02-23T09:03:43;3.83;;;1.13;;
22965;SDS011;11649;48.090;9.754;2024-02-23T09:06:11;2.47;;;1.13;;
22965;SDS011;11649;48.090;9.754;2024-02-23T09:08:39;3.03;;;1.08;;
22965;SDS011;11649;48.090;9.754;2024-02-23T09:11:16;5.63;;;1.13;;
22965;SDS011;11649;48.090;9.754;2024-02-23T09:13:43;4.78;;;0.93;;
22965;SDS011;11649;48.090;9.754;2024-02-23T09:16:10;3.40;;;0.70;;
22965;SDS011;11649;48.090;9.754;2024-02-23T09:18:37;2.58;;;0.77;;
22965;SDS011;11649;48.090;9.754;2024-02-23T09:21:04;4.22;;;0.90;;
22965;SDS011;11649;48.090;9.754;2024-02-23T09:23:30;2.28;;;0.68;;
22965;SDS011;11649;48.090;9.754;2024-02-23T09:25:59;1.90;;;0.73;;
22965;SDS011;11649;48.090;9.754;2024-02-23T09:28:26;2.80;;;1.08;;
22965;SDS011;11649;48.090;9.754;2024-02-23T09:30:53;5.55;;;0.93;;
22965;SDS011;11649;48.090;9.754;2024-02-23T09:33:23;1.33;;;0.73;;
22965;SDS011;11649;48.090;9.754;2024-02-23T09:35:50;3.17;;;0.65;;
22965;SDS011;11649;48.090;9.754;2024-02-23T09:38:17;1.23;;;0.75;;
22965;SDS011;11649;48.090;9.754;2024-02-23T09:40:44;2.47;;;0.77;;
22965;SDS011;11649;48.090;9.754;2024-02-23T09:43:11;2.03;;;0.80;;
22965;SDS011;11649;48.090;9.754;2024-02-23T09:45:38;2.13;;;0.75;;
22965;SDS011;11649;48.090;9.754;2024-02-23T09:48:18;3.30;;;0.90;;
22965;SDS011;11649;48.090;9.754;2024-02-23T09:50:47;6.75;;;1.40;;
22965;SDS011;11649;48.090;9.754;2024-02-23T09:53:15;4.43;;;1.67;;
22965;SDS011;11649;48.090;9.754;2024-02-23T09:55:44;7.20;;;2.55;;
22965;SDS011;11649;48.090;9.754;2024-02-23T09:58:12;3.20;;;1.13;;
22965;SDS011;11649;48.090;9.754;2024-02-23T10:00:40;3.15;;;1.20;;
22965;SDS011;11649;48.090;9.754;2024-02-23T10:03:07;3.45;;;1.15;;
22965;SDS011;11649;48.090;9.754;2024-02-23T10:05:34;7.28;;;1.83;;
22965;SDS011;11649;48.090;9.754;2024-02-23T10:08:07;4.43;;;1.20;;
22965;SDS011;11649;48.090;9.754;2024-02-23T10:10:34;4.05;;;1.60;;
22965;SDS011;11649;48.090;9.754;2024-02-23T10:13:04;4.55;;;2.20;;
22965;SDS011;11649;48.090;9.754;2024-02-23T10:15:31;4.25;;;1.95;;
22965;SDS011;11649;48.090;9.754;2024-02-23T10:17:58;4.90;;;1.83;;
22965;SDS011;11649;48.090;9.754;2024-02-23T10:20:26;3.80;;;1.25;;
22965;SDS011;11649;48.090;9.754;2024-02-23T10:22:52;5.25;;;1.10;;
22965;SDS011;11649;48.090;9.754;2024-02-23T10:25:20;2.85;;;0.95;;
22965;SDS011;11649;48.090;9.754;2024-02-23T10:27:47;2.72;;;0.90;;
22965;SDS011;11649;48.090;9.754;2024-02-23T10:30:14;4.03;;;1.20;;
22965;SDS011;11649;48.090;9.754;2024-02-23T10:32:42;3.30;;;0.90;;
22965;SDS011;11649;48.090;9.754;2024-02-23T10:35:15;6.28;;;2.50;;
22965;SDS011;11649;48.090;9.754;2024-02-23T10:37:43;3.40;;;1.27;;
22965;SDS011;11649;48.090;9.754;2024-02-23T10:40:12;4.53;;;2.22;;
22965;SDS011;11649;48.090;9.754;2024-02-23T10:42:40;4.22;;;2.10;;
22965;SDS011;11649;48.090;9.754;2024-02-23T10:45:16;7.53;;;2.20;;
22965;SDS011;11649;48.090;9.754;2024-02-23T10:47:44;2.85;;;1.00;;
22965;SDS011;11649;48.090;9.754;2024-02-23T10:50:12;3.83;;;1.20;;
22965;SDS011;11649;48.090;9.754;2024-02-23T10:52:41;2.53;;;1.08;;
22965;SDS011;11649;48.090;9.754;2024-02-23T10:55:08;2.30;;;1.00;;
22965;SDS011;11649;48.090;9.754;2024-02-23T10:57:36;3.70;;;1.20;;
22965;SDS011;11649;48.090;9.754;2024-02-23T11:00:03;2.72;;;1.20;;
22965;SDS011;11649;48.090;9.754;2024-02-23T11:02:46;4.05;;;1.25;;
22965;SDS011;11649;48.090;9.754;2024-02-23T11:05:17;2.10;;;0.70;;
22965;SDS011;11649;48.090;9.754;2024-02-23T11:07:48;1.50;;;0.52;;
22965;SDS011;11649;48.090;9.754;2024-02-23T11:10:16;2.80;;;0.75;;
22965;SDS011;11649;48.090;9.754;2024-02-23T11:12:43;2.55;;;0.90;;
22965;SDS011;11649;48.090;9.754;2024-02-23T11:15:24;5.30;;;0.90;;
22965;SDS011;11649;48.090;9.754;2024-02-23T11:17:55;1.23;;;0.77;;
22965;SDS011;11649;48.090;9.754;2024-02-23T11:20:34;4.38;;;1.23;;
22965;SDS011;11649;48.090;9.754;2024-02-23T11:23:12;2.20;;;0.80;;
22965;SDS011;11649;48.090;9.754;2024-02-23T11:25:40;2.72;;;1.05;;
22965;SDS011;11649;48.090;9.754;2024-02-23T11:28:21;5.10;;;1.35;;
22965;SDS011;11649;48.090;9.754;2024-02-23T11:30:49;3.03;;;1.08;;
22965;SDS011;11649;48.090;9.754;2024-02-23T11:33:28;4.35;;;1.08;;
22965;SDS011;11649;48.090;9.754;2024-02-23T11:36:07;4.28;;;1.88;;
22965;SDS011;11649;48.090;9.754;2024-02-23T11:38:35;3.05;;;1.17;;
22965;SDS011;11649;48.090;9.754;2024-02-23T11:41:17;1.30;;;0.80;;
22965;SDS011;11649;48.090;9.754;2024-02-23T11:43:44;2.95;;;0.98;;
22965;SDS011;11649;48.090;9.754;2024-02-23T11:46:14;1.80;;;0.88;;
22965;SDS011;11649;48.090;9.754;2024-02-23T11:48:42;3.10;;;0.75;;
22965;SDS011;11649;48.090;9.754;2024-02-23T11:51:10;2.85;;;1.08;;
22965;SDS011;11649;48.090;9.754;2024-02-23T11:53:37;3.58;;;1.20;;
22965;SDS011;11649;48.090;9.754;2024-02-23T11:56:07;4.18;;;1.40;;
22965;SDS011;11649;48.090;9.754;2024-02-23T11:58:35;4.57;;;1.25;;
22965;SDS011;11649;48.090;9.754;2024-02-23T12:01:02;3.08;;;0.85;;
22965;SDS011;11649;48.090;9.754;2024-02-23T12:03:29;2.35;;;1.42;;
22965;SDS011;11649;48.090;9.754;2024-02-23T12:06:02;4.78;;;1.02;;
22965;SDS011;11649;48.090;9.754;2024-02-23T12:08:33;4.15;;;1.10;;
22965;SDS011;11649;48.090;9.754;2024-02-23T12:11:14;4.75;;;1.15;;
22965;SDS011;11649;48.090;9.754;2024-02-23T12:13:41;2.00;;;1.05;;
22965;SDS011;11649;48.090;9.754;2024-02-23T12:16:08;3.22;;;1.80;;
22965;SDS011;11649;48.090;9.754;2024-02-23T12:18:35;3.38;;;1.80;;
22965;SDS011;11649;48.090;9.754;2024-02-23T12:21:06;1.80;;;1.25;;
22965;SDS011;11649;48.090;9.754;2024-02-23T12:23:41;2.38;;;1.23;;
22965;SDS011;11649;48.090;9.754;2024-02-23T12:26:08;3.03;;;1.30;;
22965;SDS011;11649;48.090;9.754;2024-02-23T12:28:36;2.05;;;1.10;;
22965;SDS011;11649;48.090;9.754;2024-02-23T12:31:03;2.13;;;1.42;;
22965;SDS011;11649;48.090;9.754;2024-02-23T12:33:32;1.60;;;1.40;;
22965;SDS011;11649;48.090;9.754;2024-02-23T12:36:07;2.53;;;1.50;;
22965;SDS011;11649;48.090;9.754;2024-02-23T12:38:35;3.13;;;1.67;;
22965;SDS011;11649;48.090;9.754;2024-02-23T12:41:08;2.50;;;1.40;;
22965;SDS011;11649;48.090;9.754;2024-02-23T12:43:35;3.70;;;1.40;;
22965;SDS011;11649;48.090;9.754;2024-02-23T12:46:05;5.88;;;2.63;;
22965;SDS011;11649;48.090;9.754;2024-02-23T12:48:34;7.63;;;3.38;;
22965;SDS011;11649;48.090;9.754;2024-02-23T12:51:01;3.40;;;1.83;;
22965;SDS011;11649;48.090;9.754;2024-02-23T12:53:35;1.95;;;1.17;;
22965;SDS011;11649;48.090;9.754;2024-02-23T12:56:08;3.85;;;1.50;;
22965;SDS011;11649;48.090;9.754;2024-02-23T13:01:33;2.75;;;1.73;;
22965;SDS011;11649;48.090;9.754;2024-02-23T13:04:04;2.30;;;1.40;;
22965;SDS011;11649;48.090;9.754;2024-02-23T13:06:39;2.45;;;1.65;;
22965;SDS011;11649;48.090;9.754;2024-02-23T13:09:06;4.72;;;2.35;;
22965;SDS011;11649;48.090;9.754;2024-02-23T13:11:37;3.47;;;1.80;;
22965;SDS011;11649;48.090;9.754;2024-02-23T13:14:23;8.02;;;2.53;;
22965;SDS011;11649;48.090;9.754;2024-02-23T13:16:50;4.28;;;1.95;;
22965;SDS011;11649;48.090;9.754;2024-02-23T13:19:17;3.88;;;1.65;;
22965;SDS011;11649;48.090;9.754;2024-02-23T13:21:44;4.68;;;2.05;;
22965;SDS011;11649;48.090;9.754;2024-02-23T13:24:10;3.40;;;1.67;;
22965;SDS011;11649;48.090;9.754;2024-02-23T13:26:37;3.33;;;1.60;;
22965;SDS011;11649;48.090;9.754;2024-02-23T13:29:04;5.35;;;1.60;;
22965;SDS011;11649;48.090;9.754;2024-02-23T13:31:31;2.03;;;1.35;;
22965;SDS011;11649;48.090;9.754;2024-02-23T13:33:57;3.20;;;1.13;;
22965;SDS011;11649;48.090;9.754;2024-02-23T13:36:25;3.92;;;1.50;;
22965;SDS011;11649;48.090;9.754;2024-02-23T13:38:51;4.18;;;1.30;;
22965;SDS011;11649;48.090;9.754;2024-02-23T13:41:18;3.60;;;2.03;;
22965;SDS011;11649;48.090;9.754;2024-02-23T13:43:45;4.55;;;1.58;;
22965;SDS011;11649;48.090;9.754;2024-02-23T13:46:12;2.67;;;1.40;;
22965;SDS011;11649;48.090;9.754;2024-02-23T13:48:39;4.07;;;1.40;;
22965;SDS011;11649;48.090;9.754;2024-02-23T13:51:06;4.85;;;1.25;;
22965;SDS011;11649;48.090;9.754;2024-02-23T13:53:33;2.25;;;1.13;;
22965;SDS011;11649;48.090;9.754;2024-02-23T13:56:02;1.27;;;0.80;;
22965;SDS011;11649;48.090;9.754;2024-02-23T13:58:30;1.42;;;0.90;;
22965;SDS011;11649;48.090;9.754;2024-02-23T14:00:56;4.95;;;2.00;;
22965;SDS011;11649;48.090;9.754;2024-02-23T14:03:23;3.88;;;1.70;;
22965;SDS011;11649;48.090;9.754;2024-02-23T14:05:50;7.28;;;1.92;;
22965;SDS011;11649;48.090;9.754;2024-02-23T14:08:18;2.97;;;1.13;;
22965;SDS011;11649;48.090;9.754;2024-02-23T14:10:45;2.47;;;1.13;;
22965;SDS011;11649;48.090;9.754;2024-02-23T14:13:12;2.42;;;1.30;;
22965;SDS011;11649;48.090;9.754;2024-02-23T14:15:39;4.63;;;1.30;;
22965;SDS011;11649;48.090;9.754;2024-02-23T14:18:06;5.00;;;2.25;;
22965;SDS011;11649;48.090;9.754;2024-02-23T14:20:32;13.88;;;5.85;;
22965;SDS011;11649;48.090;9.754;2024-02-23T14:22:59;3.70;;;1.95;;
22965;SDS011;11649;48.090;9.754;2024-02-23T14:25:26;4.28;;;1.77;;
22965;SDS011;11649;48.090;9.754;2024-02-23T14:27:53;3.70;;;1.23;;
22965;SDS011;11649;48.090;9.754;2024-02-23T14:30:22;3.42;;;0.93;;
22965;SDS011;11649;48.090;9.754;2024-02-23T14:32:48;4.15;;;1.17;;
22965;SDS011;11649;48.090;9.754;2024-02-23T14:35:30;6.82;;;2.10;;
22965;SDS011;11649;48.090;9.754;2024-02-23T14:37:57;3.42;;;1.63;;
22965;SDS011;11649;48.090;9.754;2024-02-23T14:40:24;4.32;;;1.60;;
22965;SDS011;11649;48.090;9.754;2024-02-23T14:42:56;5.00;;;1.77;;
22965;SDS011;11649;48.090;9.754;2024-02-23T14:45:23;4.13;;;1.55;;
22965;SDS011;11649;48.090;9.754;2024-02-23T14:47:51;3.40;;;1.50;;
22965;SDS011;11649;48.090;9.754;2024-02-23T14:50:18;3.75;;;1.02;;
22965;SDS011;11649;48.090;9.754;2024-02-23T14:52:45;5.03;;;2.05;;
22965;SDS011;11649;48.090;9.754;2024-02-23T14:55:12;4.78;;;1.50;;
22965;SDS011;11649;48.090;9.754;2024-02-23T14:57:39;3.90;;;1.20;;
22965;SDS011;11649;48.090;9.754;2024-02-23T15:00:07;2.40;;;1.30;;